Voreifelwetter - Wetterstation Drove - Standort 5043'47" - 0630'49"
Wetterdaten: aktuell Sonntag, 19.05.2019 08:00
Datum Zeit Temp. A. Feuchte A. Luftdruck Regen Wind Richtung Richtung Sonnenschein Helligkeit Taupunkt Windchill
19.05.2019 08:00 13,6 C 94 % 1003,3 hPa 0,0 mm 0,0 km/h (0 Bft) NW 325 0 min 10,1 klux 12,7 C 13,6 C
19.05.2019 07:45 13,1 C 93 % 1003,3 hPa 0,0 mm 0,0 km/h (0 Bft) NW 325 0 min 9,9 klux 12,0 C 13,1 C
19.05.2019 07:30 12,8 C 93 % 1003,3 hPa 0,0 mm 0,0 km/h (0 Bft) NW 325 0 min 8,58 klux 11,7 C 12,8 C
19.05.2019 07:15 12,3 C 93 % 1003,3 hPa 0,0 mm 0,0 km/h (0 Bft) NW 325 0 min 8,40 klux 11,2 C 12,3 C
19.05.2019 07:00 12,0 C 93 % 1003,4 hPa 0,0 mm 0,0 km/h (0 Bft) NW 325 0 min 7,03 klux 10,9 C 12,0 C
19.05.2019 06:45 11,6 C 93 % 1003,4 hPa 0,0 mm 0,0 km/h (0 Bft) NW 325 0 min 4,74 klux 10,5 C 11,6 C
19.05.2019 06:30 11,1 C 93 % 1003,4 hPa 0,0 mm 0,0 km/h (0 Bft) NW 325 0 min 3,31 klux 10,0 C 11,1 C
19.05.2019 06:15 10,9 C 93 % 1003,5 hPa 0,0 mm 0,0 km/h (0 Bft) NW 325 0 min 1,73 klux 9,8 C 10,9 C
19.05.2019 06:00 10,8 C 92 % 1003,5 hPa 0,0 mm 0,0 km/h (0 Bft) S-SW 210 0 min 912 lux 9,6 C 10,8 C
19.05.2019 05:45 11,0 C 92 % 1003,4 hPa 0,0 mm 0,0 km/h (0 Bft) S-SW 210 0 min 277 lux 9,8 C 11,0 C
19.05.2019 05:30 11,4 C 92 % 1003,4 hPa 0,0 mm 0,0 km/h (0 Bft) S-SW 210 0 min 88 lux 10,1 C 11,4 C
19.05.2019 05:15 11,6 C 92 % 1003,4 hPa 0,0 mm 0,0 km/h (0 Bft) S-SW 210 0 min 0 lux 10,3 C 11,6 C
19.05.2019 05:01 11,6 C 92 % 1003,4 hPa 0,0 mm 0,0 km/h (0 Bft) S-SW 210 0 min 0 lux 10,3 C 11,6 C
19.05.2019 04:45 11,6 C 92 % 1003,4 hPa 0,0 mm 0,0 km/h (0 Bft) S-SW 210 0 min 0 lux 10,3 C 11,6 C
19.05.2019 04:30 11,6 C 92 % 1003,4 hPa 0,0 mm 0,0 km/h (0 Bft) S-SW 210 0 min 0 lux 10,3 C 11,6 C
19.05.2019 04:15 11,6 C 92 % 1003,4 hPa 0,0 mm 0,0 km/h (0 Bft) S-SW 210 0 min 0 lux 10,3 C 11,6 C
19.05.2019 04:00 11,6 C 91 % 1003,4 hPa 0,0 mm 0,0 km/h (0 Bft) S-SW 210 0 min 0 lux 10,2 C 11,6 C
19.05.2019 03:45 11,8 C 91 % 1003,4 hPa 0,0 mm 0,0 km/h (0 Bft) S-SW 210 0 min 0 lux 10,4 C 11,8 C
19.05.2019 03:31 11,8 C 92 % 1003,4 hPa 0,0 mm 0,0 km/h (0 Bft) S-SO45 150 0 min 0 lux 10,5 C 11,8 C
19.05.2019 03:15 11,6 C 91 % 1003,4 hPa 0,0 mm 0,0 km/h (0 Bft) S 185 0 min 0 lux 10,2 C 11,6 C
19.05.2019 03:00 11,8 C 91 % 1003,4 hPa 0,0 mm 0,0 km/h (0 Bft) S 185 0 min 0 lux 10,4 C 11,8 C
19.05.2019 02:45 12,0 C 92 % 1003,4 hPa 0,0 mm 0,0 km/h (0 Bft) NW 305 0 min 0 lux 10,7 C 12,0 C
19.05.2019 02:30 11,8 C 91 % 1003,4 hPa 0,0 mm 0,0 km/h (0 Bft) NW 305 0 min 0 lux 10,4 C 11,8 C
19.05.2019 02:15 11,7 C 91 % 1004,4 hPa 0,0 mm 0,0 km/h (0 Bft) NW 305 0 min 0 lux 10,3 C 11,7 C
19.05.2019 02:00 11,7 C 91 % 1004,4 hPa 0,0 mm 0,0 km/h (0 Bft) NW 305 0 min 0 lux 10,3 C 11,7 C
19.05.2019 01:45 11,8 C 90 % 1004,4 hPa 0,0 mm 0,0 km/h (0 Bft) NW 305 0 min 0 lux 10,2 C 11,8 C
19.05.2019 01:30 12,0 C 90 % 1004,4 hPa 0,0 mm 0,0 km/h (0 Bft) W-NW 290 0 min 0 lux 10,4 C 12,0 C
19.05.2019 01:15 12,0 C 90 % 1004,4 hPa 0,0 mm 0,0 km/h (0 Bft) W-NW 290 0 min 0 lux 10,4 C 12,0 C
19.05.2019 01:00 12,1 C 89 % 1004,4 hPa 0,0 mm 0,0 km/h (0 Bft) W-NW 290 0 min 0 lux 10,3 C 12,1 C
19.05.2019 00:45 12,3 C 88 % 1004,4 hPa 0,0 mm 0,0 km/h (0 Bft) W-NW 290 0 min 0 lux 10,4 C 12,3 C
19.05.2019 00:30 12,5 C 88 % 1004,4 hPa 0,0 mm 0,0 km/h (0 Bft) N-NO 20 0 min 0 lux 10,6 C 12,5 C
19.05.2019 00:15 12,6 C 88 % 1004,3 hPa 0,0 mm 0,0 km/h (0 Bft) O-NO 60 0 min 0 lux 10,7 C 12,6 C
19.05.2019 00:00 12,7 C 87 % 1004,3 hPa 0,0 mm 0,0 km/h (0 Bft) O-SO 115 0 min 0 lux 10,6 C 12,7 C
_ Min-Zeit 06:00 00:00 08:00 - 00:00 - - - - 06:00 06:00
Minimum _ 10,8 C 87 % 1003,3 hPa - 0,0 km/h (0 Bft) - - - - 9,6 C 10,8 C
_ Max-Zeit 08:00 08:00 02:00 00:00 00:00 - - 00:00 08:00 08:00 08:00
Maximum _ 13,6 C 94 % 1004,4 hPa 0,0 mm 0,0 km/h
O-SO (0 Bft)
- - 0 min 10,1 klux 12,7 C 13,6 C
Durchschnitt _ 11,9 C 91 % 1003,7 hPa #0,0 mm 0,0 km/h (0 Bft) - - - #0 min. 1,67 klux 10,5 C 11,9 C